sensor_id;sensor_type;location;lat;lon;timestamp;pressure;altitude;pressure_sealevel;temperature;humidity
28027;BME280;15344;52.342;-1.290;2023-03-04T00:01:26;101757.89;;;5.99;82.96
28027;BME280;15344;52.342;-1.290;2023-03-04T00:03:52;101759.71;;;6.21;83.42
28027;BME280;15344;52.342;-1.290;2023-03-04T00:06:17;101756.65;;;6.98;80.76
28027;BME280;15344;52.342;-1.290;2023-03-04T00:08:42;101760.73;;;6.12;82.17
28027;BME280;15344;52.342;-1.290;2023-03-04T00:11:08;101761.66;;;4.67;88.94
28027;BME280;15344;52.342;-1.290;2023-03-04T00:13:33;101759.36;;;6.98;79.67
28027;BME280;15344;52.342;-1.290;2023-03-04T00:15:59;101762.26;;;7.50;78.07
28027;BME280;15344;52.342;-1.290;2023-03-04T00:18:25;101764.72;;;7.54;77.14
28027;BME280;15344;52.342;-1.290;2023-03-04T00:20:51;101766.36;;;6.63;80.25
28027;BME280;15344;52.342;-1.290;2023-03-04T00:23:16;101767.56;;;6.82;76.76
28027;BME280;15344;52.342;-1.290;2023-03-04T00:25:42;101771.02;;;7.41;75.15
28027;BME280;15344;52.342;-1.290;2023-03-04T00:28:07;101776.60;;;5.41;83.24
28027;BME280;15344;52.342;-1.290;2023-03-04T00:30:33;101774.51;;;6.38;80.32
28027;BME280;15344;52.342;-1.290;2023-03-04T00:32:58;101773.88;;;6.10;79.74
28027;BME280;15344;52.342;-1.290;2023-03-04T00:35:24;101773.69;;;6.10;79.11
28027;BME280;15344;52.342;-1.290;2023-03-04T00:37:49;101774.97;;;5.04;85.29
28027;BME280;15344;52.342;-1.290;2023-03-04T00:40:15;101777.72;;;6.35;79.66
28027;BME280;15344;52.342;-1.290;2023-03-04T00:42:40;101778.91;;;5.60;81.44
28027;BME280;15344;52.342;-1.290;2023-03-04T00:45:08;101776.79;;;6.35;79.10
28027;BME280;15344;52.342;-1.290;2023-03-04T00:47:31;101770.90;;;6.90;77.10
28027;BME280;15344;52.342;-1.290;2023-03-04T00:49:57;101773.83;;;7.54;74.66
28027;BME280;15344;52.342;-1.290;2023-03-04T00:52:22;101773.09;;;6.40;79.31
28027;BME280;15344;52.342;-1.290;2023-03-04T00:54:48;101767.43;;;6.75;78.64
28027;BME280;15344;52.342;-1.290;2023-03-04T00:57:13;101765.99;;;8.52;71.96
28027;BME280;15344;52.342;-1.290;2023-03-04T00:59:39;101767.84;;;7.88;71.86
28027;BME280;15344;52.342;-1.290;2023-03-04T01:02:04;101768.55;;;7.72;72.78
28027;BME280;15344;52.342;-1.290;2023-03-04T01:04:30;101768.95;;;7.87;72.36
28027;BME280;15344;52.342;-1.290;2023-03-04T01:06:56;101767.93;;;7.73;72.71
28027;BME280;15344;52.342;-1.290;2023-03-04T01:09:21;101772.77;;;7.23;74.91
28027;BME280;15344;52.342;-1.290;2023-03-04T01:11:47;101769.00;;;8.92;69.30
28027;BME280;15344;52.342;-1.290;2023-03-04T01:14:12;101768.48;;;7.56;71.33
28027;BME280;15344;52.342;-1.290;2023-03-04T01:16:38;101773.17;;;7.19;74.51
28027;BME280;15344;52.342;-1.290;2023-03-04T01:19:04;101769.51;;;8.64;70.05
28027;BME280;15344;52.342;-1.290;2023-03-04T01:21:29;101767.09;;;8.03;71.10
28027;BME280;15344;52.342;-1.290;2023-03-04T01:23:54;101772.49;;;6.36;77.91
28027;BME280;15344;52.342;-1.290;2023-03-04T01:26:20;101766.13;;;6.43;78.00
28027;BME280;15344;52.342;-1.290;2023-03-04T01:28:46;101762.67;;;7.66;74.07
28027;BME280;15344;52.342;-1.290;2023-03-04T01:31:11;101772.71;;;5.74;80.92
28027;BME280;15344;52.342;-1.290;2023-03-04T01:33:37;101761.68;;;6.75;78.15
28027;BME280;15344;52.342;-1.290;2023-03-04T01:36:03;101764.44;;;6.59;80.83
28027;BME280;15344;52.342;-1.290;2023-03-04T01:38:28;101766.14;;;6.09;82.23
28027;BME280;15344;52.342;-1.290;2023-03-04T01:40:54;101756.66;;;6.56;80.14
28027;BME280;15344;52.342;-1.290;2023-03-04T01:43:21;101749.30;;;8.06;74.78
28027;BME280;15344;52.342;-1.290;2023-03-04T01:45:45;101747.38;;;7.14;77.20
28027;BME280;15344;52.342;-1.290;2023-03-04T01:48:13;101746.36;;;7.26;78.02
28027;BME280;15344;52.342;-1.290;2023-03-04T01:50:35;101747.36;;;5.64;83.19
28027;BME280;15344;52.342;-1.290;2023-03-04T01:53:02;101739.44;;;6.47;80.66
28027;BME280;15344;52.342;-1.290;2023-03-04T01:55:28;101738.07;;;5.92;79.64
28027;BME280;15344;52.342;-1.290;2023-03-04T01:57:52;101733.80;;;6.69;78.96
28027;BME280;15344;52.342;-1.290;2023-03-04T02:00:22;101740.90;;;5.66;83.48
28027;BME280;15344;52.342;-1.290;2023-03-04T02:02:43;101740.25;;;5.09;87.16
28027;BME280;15344;52.342;-1.290;2023-03-04T02:05:09;101736.83;;;5.84;82.56
28027;BME280;15344;52.342;-1.290;2023-03-04T02:07:35;101727.76;;;7.08;78.99
28027;BME280;15344;52.342;-1.290;2023-03-04T02:10:00;101727.00;;;7.44;75.35
28027;BME280;15344;52.342;-1.290;2023-03-04T02:12:26;101723.24;;;7.53;75.90
28027;BME280;15344;52.342;-1.290;2023-03-04T02:14:52;101723.09;;;6.11;79.15
28027;BME280;15344;52.342;-1.290;2023-03-04T02:19:48;101718.69;;;7.75;73.71
28027;BME280;15344;52.342;-1.290;2023-03-04T02:22:07;101721.86;;;7.23;76.82
28027;BME280;15344;52.342;-1.290;2023-03-04T02:24:36;101722.53;;;5.29;82.24
28027;BME280;15344;52.342;-1.290;2023-03-04T02:26:59;101718.79;;;7.30;77.78
28027;BME280;15344;52.342;-1.290;2023-03-04T02:29:24;101721.47;;;6.21;78.63
28027;BME280;15344;52.342;-1.290;2023-03-04T02:31:51;101719.96;;;5.95;81.65
28027;BME280;15344;52.342;-1.290;2023-03-04T02:34:17;101711.21;;;6.79;77.37
28027;BME280;15344;52.342;-1.290;2023-03-04T02:36:41;101707.36;;;6.75;76.90
28027;BME280;15344;52.342;-1.290;2023-03-04T02:39:09;101706.98;;;6.94;76.70
28027;BME280;15344;52.342;-1.290;2023-03-04T02:41:31;101701.55;;;8.42;70.56
28027;BME280;15344;52.342;-1.290;2023-03-04T02:43:56;101703.72;;;6.96;74.79
28027;BME280;15344;52.342;-1.290;2023-03-04T02:46:22;101704.40;;;6.13;77.00
28027;BME280;15344;52.342;-1.290;2023-03-04T02:48:48;101704.83;;;7.18;75.36
28027;BME280;15344;52.342;-1.290;2023-03-04T02:51:12;101700.05;;;7.35;73.59
28027;BME280;15344;52.342;-1.290;2023-03-04T02:53:37;101700.48;;;7.27;74.33
28027;BME280;15344;52.342;-1.290;2023-03-04T02:56:03;101696.28;;;6.79;75.45
28027;BME280;15344;52.342;-1.290;2023-03-04T02:58:29;101701.83;;;6.05;79.74
28027;BME280;15344;52.342;-1.290;2023-03-04T03:00:54;101702.77;;;6.04;76.91
28027;BME280;15344;52.342;-1.290;2023-03-04T03:03:20;101706.31;;;5.65;82.07
28027;BME280;15344;52.342;-1.290;2023-03-04T03:05:46;101699.13;;;7.11;75.78
28027;BME280;15344;52.342;-1.290;2023-03-04T03:08:11;101698.79;;;7.44;73.55
28027;BME280;15344;52.342;-1.290;2023-03-04T03:10:37;101697.84;;;6.69;76.48
28027;BME280;15344;52.342;-1.290;2023-03-04T03:13:02;101698.04;;;7.29;74.19
28027;BME280;15344;52.342;-1.290;2023-03-04T03:15:28;101698.10;;;8.12;71.82
28027;BME280;15344;52.342;-1.290;2023-03-04T03:17:53;101696.50;;;7.49;72.86
28027;BME280;15344;52.342;-1.290;2023-03-04T03:20:19;101692.22;;;6.52;77.43
28027;BME280;15344;52.342;-1.290;2023-03-04T03:22:44;101691.18;;;7.32;73.68
28027;BME280;15344;52.342;-1.290;2023-03-04T03:25:11;101687.76;;;6.49;76.94
28027;BME280;15344;52.342;-1.290;2023-03-04T03:27:35;101698.34;;;5.72;81.37
28027;BME280;15344;52.342;-1.290;2023-03-04T03:30:01;101692.08;;;7.61;75.81
28027;BME280;15344;52.342;-1.290;2023-03-04T03:32:26;101687.39;;;7.86;73.29
28027;BME280;15344;52.342;-1.290;2023-03-04T03:34:52;101686.39;;;6.97;74.81
28027;BME280;15344;52.342;-1.290;2023-03-04T03:37:18;101683.97;;;8.10;72.13
28027;BME280;15344;52.342;-1.290;2023-03-04T03:39:43;101683.30;;;6.66;75.05
28027;BME280;15344;52.342;-1.290;2023-03-04T03:42:08;101682.82;;;7.25;73.53
28027;BME280;15344;52.342;-1.290;2023-03-04T03:44:34;101678.00;;;7.80;70.92
28027;BME280;15344;52.342;-1.290;2023-03-04T03:46:59;101676.17;;;5.94;78.02
28027;BME280;15344;52.342;-1.290;2023-03-04T03:49:25;101679.77;;;6.11;76.75
28027;BME280;15344;52.342;-1.290;2023-03-04T03:51:51;101675.99;;;6.39;77.06
28027;BME280;15344;52.342;-1.290;2023-03-04T03:54:16;101677.31;;;6.31;79.43
28027;BME280;15344;52.342;-1.290;2023-03-04T03:56:41;101684.28;;;5.32;82.69
28027;BME280;15344;52.342;-1.290;2023-03-04T03:59:06;101677.45;;;5.89;80.08
28027;BME280;15344;52.342;-1.290;2023-03-04T04:01:32;101668.96;;;6.65;76.95
28027;BME280;15344;52.342;-1.290;2023-03-04T04:03:58;101675.18;;;5.96;78.04
28027;BME280;15344;52.342;-1.290;2023-03-04T04:06:23;101680.35;;;5.57;80.60
28027;BME280;15344;52.342;-1.290;2023-03-04T04:08:48;101679.71;;;6.15;76.64
28027;BME280;15344;52.342;-1.290;2023-03-04T04:11:14;101674.98;;;6.61;75.63
28027;BME280;15344;52.342;-1.290;2023-03-04T04:13:40;101673.40;;;6.35;73.89
28027;BME280;15344;52.342;-1.290;2023-03-04T04:16:07;101673.99;;;7.04;74.60
28027;BME280;15344;52.342;-1.290;2023-03-04T04:18:31;101675.54;;;7.82;71.75
28027;BME280;15344;52.342;-1.290;2023-03-04T04:20:56;101682.91;;;5.33;78.57
28027;BME280;15344;52.342;-1.290;2023-03-04T04:23:22;101680.71;;;6.35;77.90
28027;BME280;15344;52.342;-1.290;2023-03-04T04:25:48;101685.56;;;5.84;79.45
28027;BME280;15344;52.342;-1.290;2023-03-04T04:28:13;101684.07;;;6.11;77.92
28027;BME280;15344;52.342;-1.290;2023-03-04T04:30:39;101684.79;;;6.09;77.22
28027;BME280;15344;52.342;-1.290;2023-03-04T04:33:04;101690.17;;;5.54;81.83
28027;BME280;15344;52.342;-1.290;2023-03-04T04:35:30;101689.59;;;5.05;84.26
28027;BME280;15344;52.342;-1.290;2023-03-04T04:37:55;101695.71;;;6.08;81.83
28027;BME280;15344;52.342;-1.290;2023-03-04T04:40:21;101694.99;;;6.08;79.81
28027;BME280;15344;52.342;-1.290;2023-03-04T04:42:46;101690.66;;;7.40;75.50
28027;BME280;15344;52.342;-1.290;2023-03-04T04:45:12;101699.94;;;5.50;79.51
28027;BME280;15344;52.342;-1.290;2023-03-04T04:47:38;101692.38;;;6.32;76.34
28027;BME280;15344;52.342;-1.290;2023-03-04T04:50:03;101695.87;;;7.75;71.99
28027;BME280;15344;52.342;-1.290;2023-03-04T04:52:28;101694.25;;;8.56;70.11
28027;BME280;15344;52.342;-1.290;2023-03-04T04:54:54;101698.48;;;7.74;70.38
28027;BME280;15344;52.342;-1.290;2023-03-04T04:57:19;101697.88;;;7.72;71.19
28027;BME280;15344;52.342;-1.290;2023-03-04T04:59:45;101700.08;;;7.79;69.58
28027;BME280;15344;52.342;-1.290;2023-03-04T05:02:11;101696.73;;;6.54;73.54
28027;BME280;15344;52.342;-1.290;2023-03-04T05:04:37;101703.91;;;6.90;72.99
28027;BME280;15344;52.342;-1.290;2023-03-04T05:07:02;101703.09;;;6.45;73.24
28027;BME280;15344;52.342;-1.290;2023-03-04T05:09:27;101704.63;;;7.09;73.97
28027;BME280;15344;52.342;-1.290;2023-03-04T05:11:53;101704.98;;;6.43;74.26
28027;BME280;15344;52.342;-1.290;2023-03-04T05:14:19;101705.73;;;6.85;74.02
28027;BME280;15344;52.342;-1.290;2023-03-04T05:16:44;101705.82;;;6.75;75.15
28027;BME280;15344;52.342;-1.290;2023-03-04T05:19:09;101709.62;;;6.19;75.76
28027;BME280;15344;52.342;-1.290;2023-03-04T05:21:35;101717.95;;;5.69;77.87
28027;BME280;15344;52.342;-1.290;2023-03-04T05:24:00;101715.74;;;6.48;77.33
28027;BME280;15344;52.342;-1.290;2023-03-04T05:26:26;101717.89;;;6.70;76.26
28027;BME280;15344;52.342;-1.290;2023-03-04T05:28:52;101724.43;;;5.99;78.93
28027;BME280;15344;52.342;-1.290;2023-03-04T05:31:17;101726.39;;;5.31;79.89
28027;BME280;15344;52.342;-1.290;2023-03-04T05:33:43;101720.41;;;6.03;75.72
28027;BME280;15344;52.342;-1.290;2023-03-04T05:36:08;101721.44;;;6.61;77.02
28027;BME280;15344;52.342;-1.290;2023-03-04T05:38:34;101726.50;;;5.40;79.71
28027;BME280;15344;52.342;-1.290;2023-03-04T05:41:01;101723.74;;;5.57;79.06
28027;BME280;15344;52.342;-1.290;2023-03-04T05:43:25;101724.23;;;4.74;80.66
28027;BME280;15344;52.342;-1.290;2023-03-04T05:45:51;101725.51;;;6.41;75.67
28027;BME280;15344;52.342;-1.290;2023-03-04T05:48:17;101719.37;;;7.01;72.04
28027;BME280;15344;52.342;-1.290;2023-03-04T05:50:41;101719.93;;;7.56;69.56
28027;BME280;15344;52.342;-1.290;2023-03-04T05:53:07;101715.99;;;7.87;69.32
28027;BME280;15344;52.342;-1.290;2023-03-04T05:55:33;101713.67;;;8.16;68.16
28027;BME280;15344;52.342;-1.290;2023-03-04T05:57:58;101711.91;;;7.80;67.66
28027;BME280;15344;52.342;-1.290;2023-03-04T06:00:24;101713.50;;;6.56;70.56
28027;BME280;15344;52.342;-1.290;2023-03-04T06:02:50;101714.75;;;7.86;69.00
28027;BME280;15344;52.342;-1.290;2023-03-04T06:05:15;101710.51;;;7.59;68.85
28027;BME280;15344;52.342;-1.290;2023-03-04T06:07:40;101710.80;;;7.05;69.64
28027;BME280;15344;52.342;-1.290;2023-03-04T06:10:07;101715.32;;;6.58;72.35
28027;BME280;15344;52.342;-1.290;2023-03-04T06:12:31;101714.12;;;7.77;70.31
28027;BME280;15344;52.342;-1.290;2023-03-04T06:14:57;101716.82;;;7.03;71.87
28027;BME280;15344;52.342;-1.290;2023-03-04T06:17:22;101721.08;;;7.12;71.28
28027;BME280;15344;52.342;-1.290;2023-03-04T06:19:48;101717.67;;;8.51;67.71
28027;BME280;15344;52.342;-1.290;2023-03-04T06:22:13;101717.38;;;8.60;66.56
28027;BME280;15344;52.342;-1.290;2023-03-04T06:24:39;101719.14;;;6.92;68.77
28027;BME280;15344;52.342;-1.290;2023-03-04T06:27:05;101719.94;;;7.08;70.71
28027;BME280;15344;52.342;-1.290;2023-03-04T06:29:30;101719.47;;;7.56;68.80
28027;BME280;15344;52.342;-1.290;2023-03-04T06:31:55;101719.53;;;8.38;67.76
28027;BME280;15344;52.342;-1.290;2023-03-04T06:34:21;101724.40;;;6.76;69.79
28027;BME280;15344;52.342;-1.290;2023-03-04T06:36:47;101724.26;;;7.17;70.83
28027;BME280;15344;52.342;-1.290;2023-03-04T06:39:12;101723.02;;;6.72;72.79
28027;BME280;15344;52.342;-1.290;2023-03-04T06:41:38;101726.50;;;6.17;74.17
28027;BME280;15344;52.342;-1.290;2023-03-04T06:44:03;101733.66;;;5.17;78.11
28027;BME280;15344;52.342;-1.290;2023-03-04T06:46:28;101733.71;;;5.15;81.39
28027;BME280;15344;52.342;-1.290;2023-03-04T06:48:54;101734.98;;;6.16;77.38
28027;BME280;15344;52.342;-1.290;2023-03-04T06:51:20;101735.87;;;7.26;72.98
28027;BME280;15344;52.342;-1.290;2023-03-04T06:53:45;101735.72;;;7.34;71.77
28027;BME280;15344;52.342;-1.290;2023-03-04T06:56:12;101737.14;;;7.36;70.53
28027;BME280;15344;52.342;-1.290;2023-03-04T06:58:37;101743.90;;;7.44;71.32
28027;BME280;15344;52.342;-1.290;2023-03-04T07:01:09;101738.79;;;6.95;72.67
28027;BME280;15344;52.342;-1.290;2023-03-04T07:03:28;101748.94;;;7.04;73.88
28027;BME280;15344;52.342;-1.290;2023-03-04T07:05:53;101749.97;;;6.93;71.29
28027;BME280;15344;52.342;-1.290;2023-03-04T07:08:19;101749.09;;;6.93;73.07
28027;BME280;15344;52.342;-1.290;2023-03-04T07:10:44;101755.62;;;5.39;78.02
28027;BME280;15344;52.342;-1.290;2023-03-04T07:13:09;101755.19;;;5.94;77.62
28027;BME280;15344;52.342;-1.290;2023-03-04T07:15:36;101754.08;;;4.46;79.96
28027;BME280;15344;52.342;-1.290;2023-03-04T07:18:01;101755.96;;;6.25;76.98
28027;BME280;15344;52.342;-1.290;2023-03-04T07:20:26;101750.21;;;6.65;73.78
28027;BME280;15344;52.342;-1.290;2023-03-04T07:22:52;101751.71;;;6.32;74.74
28027;BME280;15344;52.342;-1.290;2023-03-04T07:25:18;101752.92;;;6.54;72.74
28027;BME280;15344;52.342;-1.290;2023-03-04T07:27:43;101756.16;;;6.39;75.12
28027;BME280;15344;52.342;-1.290;2023-03-04T07:30:10;101749.68;;;8.03;68.04
28027;BME280;15344;52.342;-1.290;2023-03-04T07:32:34;101750.72;;;6.51;73.08
28027;BME280;15344;52.342;-1.290;2023-03-04T07:34:59;101748.59;;;6.72;71.66
28027;BME280;15344;52.342;-1.290;2023-03-04T07:37:24;101753.23;;;7.31;72.51
28027;BME280;15344;52.342;-1.290;2023-03-04T07:39:51;101757.23;;;7.03;71.59
28027;BME280;15344;52.342;-1.290;2023-03-04T07:42:16;101760.45;;;6.41;73.59
28027;BME280;15344;52.342;-1.290;2023-03-04T07:44:41;101760.30;;;7.74;68.72
28027;BME280;15344;52.342;-1.290;2023-03-04T07:47:07;101762.40;;;8.27;67.66
28027;BME280;15344;52.342;-1.290;2023-03-04T07:49:32;101761.65;;;7.88;67.67
28027;BME280;15344;52.342;-1.290;2023-03-04T07:52:01;101762.32;;;8.56;65.54
28027;BME280;15344;52.342;-1.290;2023-03-04T07:54:23;101767.07;;;8.21;66.20
28027;BME280;15344;52.342;-1.290;2023-03-04T07:56:48;101762.85;;;9.18;63.82
28027;BME280;15344;52.342;-1.290;2023-03-04T07:59:14;101770.59;;;8.31;66.48
28027;BME280;15344;52.342;-1.290;2023-03-04T08:01:40;101769.73;;;8.49;63.66
28027;BME280;15344;52.342;-1.290;2023-03-04T08:04:06;101767.94;;;7.82;66.75
28027;BME280;15344;52.342;-1.290;2023-03-04T08:06:32;101766.26;;;8.89;64.09
28027;BME280;15344;52.342;-1.290;2023-03-04T08:08:58;101767.31;;;7.80;66.65
28027;BME280;15344;52.342;-1.290;2023-03-04T08:11:22;101771.33;;;7.36;69.41
28027;BME280;15344;52.342;-1.290;2023-03-04T08:13:48;101775.14;;;5.47;75.10
28027;BME280;15344;52.342;-1.290;2023-03-04T08:16:13;101764.94;;;7.64;68.64
28027;BME280;15344;52.342;-1.290;2023-03-04T08:18:39;101764.71;;;6.98;70.56
28027;BME280;15344;52.342;-1.290;2023-03-04T08:21:08;101766.99;;;7.37;68.10
28027;BME280;15344;52.342;-1.290;2023-03-04T08:23:30;101770.26;;;6.46;71.96
28027;BME280;15344;52.342;-1.290;2023-03-04T08:25:55;101770.68;;;7.59;68.42
28027;BME280;15344;52.342;-1.290;2023-03-04T08:28:21;101771.92;;;7.72;68.68
28027;BME280;15344;52.342;-1.290;2023-03-04T08:30:52;101771.84;;;7.48;68.23
28027;BME280;15344;52.342;-1.290;2023-03-04T08:33:11;101776.35;;;5.72;74.07
28027;BME280;15344;52.342;-1.290;2023-03-04T08:35:39;101770.11;;;7.35;68.41
28027;BME280;15344;52.342;-1.290;2023-03-04T08:38:02;101769.45;;;6.76;70.43
28027;BME280;15344;52.342;-1.290;2023-03-04T08:40:27;101774.31;;;5.98;73.91
28027;BME280;15344;52.342;-1.290;2023-03-04T08:42:53;101771.78;;;7.44;71.28
28027;BME280;15344;52.342;-1.290;2023-03-04T08:45:19;101773.03;;;7.22;69.38
28027;BME280;15344;52.342;-1.290;2023-03-04T08:47:44;101774.26;;;7.87;66.32
28027;BME280;15344;52.342;-1.290;2023-03-04T08:50:10;101773.30;;;7.45;67.44
28027;BME280;15344;52.342;-1.290;2023-03-04T08:52:35;101772.79;;;7.36;67.47
28027;BME280;15344;52.342;-1.290;2023-03-04T08:55:00;101772.95;;;7.17;68.16
28027;BME280;15344;52.342;-1.290;2023-03-04T08:57:26;101778.82;;;7.37;69.88
28027;BME280;15344;52.342;-1.290;2023-03-04T08:59:52;101776.03;;;7.57;68.62
28027;BME280;15344;52.342;-1.290;2023-03-04T09:02:17;101781.13;;;6.81;70.56
28027;BME280;15344;52.342;-1.290;2023-03-04T09:04:43;101780.31;;;5.92;71.17
28027;BME280;15344;52.342;-1.290;2023-03-04T09:07:08;101772.59;;;7.22;67.75
28027;BME280;15344;52.342;-1.290;2023-03-04T09:09:34;101770.10;;;7.72;67.49
28027;BME280;15344;52.342;-1.290;2023-03-04T09:12:00;101767.53;;;8.24;66.21
28027;BME280;15344;52.342;-1.290;2023-03-04T09:14:26;101766.88;;;7.83;67.84
28027;BME280;15344;52.342;-1.290;2023-03-04T09:16:51;101766.84;;;7.14;69.87
28027;BME280;15344;52.342;-1.290;2023-03-04T09:19:16;101770.90;;;6.04;73.30
28027;BME280;15344;52.342;-1.290;2023-03-04T09:21:41;101768.45;;;7.43;69.08
28027;BME280;15344;52.342;-1.290;2023-03-04T09:24:07;101770.27;;;7.33;67.76
28027;BME280;15344;52.342;-1.290;2023-03-04T09:26:32;101768.28;;;9.05;63.95
28027;BME280;15344;52.342;-1.290;2023-03-04T09:29:00;101765.21;;;9.14;62.04
28027;BME280;15344;52.342;-1.290;2023-03-04T09:31:24;101776.99;;;8.18;63.41
28027;BME280;15344;52.342;-1.290;2023-03-04T09:33:49;101772.01;;;8.96;62.61
28027;BME280;15344;52.342;-1.290;2023-03-04T09:36:15;101773.93;;;8.12;63.85
28027;BME280;15344;52.342;-1.290;2023-03-04T09:38:40;101771.97;;;8.08;63.57
28027;BME280;15344;52.342;-1.290;2023-03-04T09:41:08;101768.13;;;7.30;65.53
28027;BME280;15344;52.342;-1.290;2023-03-04T09:43:31;101773.38;;;7.68;66.41
28027;BME280;15344;52.342;-1.290;2023-03-04T09:45:57;101768.42;;;9.01;62.78
28027;BME280;15344;52.342;-1.290;2023-03-04T09:48:24;101770.04;;;7.44;64.34
28027;BME280;15344;52.342;-1.290;2023-03-04T09:50:57;101775.81;;;7.98;64.17
28027;BME280;15344;52.342;-1.290;2023-03-04T09:53:20;101775.38;;;7.45;64.51
28027;BME280;15344;52.342;-1.290;2023-03-04T09:55:40;101769.55;;;8.30;64.47
28027;BME280;15344;52.342;-1.290;2023-03-04T09:58:10;101770.13;;;8.19;63.29
28027;BME280;15344;52.342;-1.290;2023-03-04T10:00:35;101769.55;;;6.66;68.05
28027;BME280;15344;52.342;-1.290;2023-03-04T10:03:03;101768.41;;;6.69;67.84
28027;BME280;15344;52.342;-1.290;2023-03-04T10:05:21;101768.95;;;8.21;65.34
28027;BME280;15344;52.342;-1.290;2023-03-04T10:07:48;101767.85;;;8.20;64.95
28027;BME280;15344;52.342;-1.290;2023-03-04T10:10:13;101766.60;;;7.92;64.21
28027;BME280;15344;52.342;-1.290;2023-03-04T10:12:39;101765.16;;;8.40;64.76
28027;BME280;15344;52.342;-1.290;2023-03-04T10:15:04;101763.34;;;8.66;62.75
28027;BME280;15344;52.342;-1.290;2023-03-04T10:17:33;101764.11;;;8.52;62.25
28027;BME280;15344;52.342;-1.290;2023-03-04T10:19:58;101760.53;;;8.77;62.72
28027;BME280;15344;52.342;-1.290;2023-03-04T10:22:26;101760.56;;;7.31;66.48
28027;BME280;15344;52.342;-1.290;2023-03-04T10:24:43;101762.91;;;8.37;63.80
28027;BME280;15344;52.342;-1.290;2023-03-04T10:27:11;101760.96;;;7.17;67.53
28027;BME280;15344;52.342;-1.290;2023-03-04T10:29:34;101761.85;;;8.46;63.94
28027;BME280;15344;52.342;-1.290;2023-03-04T10:31:59;101756.87;;;8.08;64.32
28027;BME280;15344;52.342;-1.290;2023-03-04T10:34:25;101752.37;;;8.35;64.94
28027;BME280;15344;52.342;-1.290;2023-03-04T10:36:55;101751.87;;;9.26;62.39
28027;BME280;15344;52.342;-1.290;2023-03-04T10:39:20;101754.19;;;8.28;64.30
28027;BME280;15344;52.342;-1.290;2023-03-04T10:41:42;101751.82;;;8.89;63.52
28027;BME280;15344;52.342;-1.290;2023-03-04T10:44:14;101753.88;;;9.74;61.03
28027;BME280;15344;52.342;-1.290;2023-03-04T10:46:32;101751.37;;;7.14;65.91
28027;BME280;15344;52.342;-1.290;2023-03-04T10:48:58;101748.64;;;8.38;65.64
28027;BME280;15344;52.342;-1.290;2023-03-04T10:51:24;101750.58;;;7.37;68.21
28027;BME280;15344;52.342;-1.290;2023-03-04T10:53:51;101749.79;;;8.74;63.29
28027;BME280;15344;52.342;-1.290;2023-03-04T10:58:40;101753.91;;;8.28;64.77
28027;BME280;15344;52.342;-1.290;2023-03-04T11:01:05;101755.63;;;7.96;65.44
28027;BME280;15344;52.342;-1.290;2023-03-04T11:03:33;101761.60;;;5.97;70.80
28027;BME280;15344;52.342;-1.290;2023-03-04T11:08:22;101758.81;;;8.80;65.36
28027;BME280;15344;52.342;-1.290;2023-03-04T11:10:47;101758.42;;;8.32;65.05
28027;BME280;15344;52.342;-1.290;2023-03-04T11:13:16;101758.06;;;7.43;65.35
28027;BME280;15344;52.342;-1.290;2023-03-04T11:18:08;101754.28;;;7.77;64.92
28027;BME280;15344;52.342;-1.290;2023-03-04T11:20:31;101747.33;;;8.42;64.01
28027;BME280;15344;52.342;-1.290;2023-03-04T11:22:56;101746.69;;;7.31;64.74
28027;BME280;15344;52.342;-1.290;2023-03-04T11:25:24;101738.97;;;8.65;60.72
28027;BME280;15344;52.342;-1.290;2023-03-04T11:27:47;101738.49;;;7.06;65.68
28027;BME280;15344;52.342;-1.290;2023-03-04T11:30:25;101737.84;;;6.69;67.03
28027;BME280;15344;52.342;-1.290;2023-03-04T11:32:39;101729.55;;;8.25;63.66
28027;BME280;15344;52.342;-1.290;2023-03-04T11:35:07;101728.99;;;7.94;63.67
28027;BME280;15344;52.342;-1.290;2023-03-04T11:37:30;101727.60;;;8.00;62.60
28027;BME280;15344;52.342;-1.290;2023-03-04T11:39:57;101732.01;;;7.02;64.98
28027;BME280;15344;52.342;-1.290;2023-03-04T11:42:26;101724.44;;;6.96;66.86
28027;BME280;15344;52.342;-1.290;2023-03-04T11:44:43;101719.06;;;7.31;67.18
28027;BME280;15344;52.342;-1.290;2023-03-04T11:47:21;101715.73;;;6.88;65.79
28027;BME280;15344;52.342;-1.290;2023-03-04T11:52:05;101712.36;;;7.71;66.04
28027;BME280;15344;52.342;-1.290;2023-03-04T11:54:28;101709.90;;;8.35;63.64
28027;BME280;15344;52.342;-1.290;2023-03-04T11:56:53;101706.56;;;7.63;64.05
28027;BME280;15344;52.342;-1.290;2023-03-04T12:01:49;101694.17;;;7.80;61.74
28027;BME280;15344;52.342;-1.290;2023-03-04T12:04:18;101694.73;;;8.36;60.91
28027;BME280;15344;52.342;-1.290;2023-03-04T12:06:41;101690.84;;;8.08;63.40
28027;BME280;15344;52.342;-1.290;2023-03-04T12:09:02;101693.22;;;8.11;61.43
28027;BME280;15344;52.342;-1.290;2023-03-04T12:11:31;101684.62;;;7.71;63.15
28027;BME280;15344;52.342;-1.290;2023-03-04T12:13:57;101678.86;;;8.40;60.44
28027;BME280;15344;52.342;-1.290;2023-03-04T12:16:25;101679.72;;;8.84;59.78
28027;BME280;15344;52.342;-1.290;2023-03-04T12:18:47;101676.07;;;8.37;60.09
28027;BME280;15344;52.342;-1.290;2023-03-04T12:21:15;101671.99;;;8.65;58.56
28027;BME280;15344;52.342;-1.290;2023-03-04T12:23:42;101671.63;;;8.15;61.12
28027;BME280;15344;52.342;-1.290;2023-03-04T12:25:58;101667.74;;;8.70;60.01
28027;BME280;15344;52.342;-1.290;2023-03-04T12:28:29;101662.61;;;8.90;60.53
28027;BME280;15344;52.342;-1.290;2023-03-04T12:30:56;101661.90;;;8.66;59.31
28027;BME280;15344;52.342;-1.290;2023-03-04T12:33:18;101657.85;;;8.20;60.84
28027;BME280;15344;52.342;-1.290;2023-03-04T12:35:40;101655.66;;;8.28;61.60
28027;BME280;15344;52.342;-1.290;2023-03-04T12:38:15;101654.32;;;8.89;59.35
28027;BME280;15344;52.342;-1.290;2023-03-04T12:40:37;101652.78;;;6.99;63.72
28027;BME280;15344;52.342;-1.290;2023-03-04T12:43:06;101643.65;;;7.44;62.54
28027;BME280;15344;52.342;-1.290;2023-03-04T12:45:21;101644.27;;;8.90;61.69
28027;BME280;15344;52.342;-1.290;2023-03-04T12:47:51;101637.09;;;9.03;59.86
28027;BME280;15344;52.342;-1.290;2023-03-04T12:50:21;101637.38;;;7.55;63.35
28027;BME280;15344;52.342;-1.290;2023-03-04T12:52:48;101633.07;;;7.63;61.62
28027;BME280;15344;52.342;-1.290;2023-03-04T12:55:02;101633.29;;;8.84;59.64